createdAt,value
2023-04-27T00:00:44.920Z,9.50
2023-04-27T00:03:32.664Z,11.18
2023-04-27T00:06:18.863Z,9.07
2023-04-27T00:09:05.347Z,14.98
2023-04-27T00:11:51.675Z,10.05
2023-04-27T00:14:38.031Z,9.63
2023-04-27T00:17:24.478Z,12.30
2023-04-27T00:20:12.988Z,9.57
2023-04-27T00:22:59.326Z,11.32
2023-04-27T00:25:45.706Z,9.40
2023-04-27T00:28:32.047Z,9.38
2023-04-27T00:31:18.632Z,10.00
2023-04-27T00:34:05.124Z,10.50
2023-04-27T00:36:52.826Z,9.40
2023-04-27T00:39:40.619Z,15.10
2023-04-27T00:42:26.811Z,9.80
2023-04-27T00:45:14.372Z,10.73
2023-04-27T00:48:00.931Z,7.85
2023-04-27T00:50:47.479Z,14.13
2023-04-27T00:53:35.840Z,11.80
2023-04-27T00:56:22.699Z,17.58
2023-04-27T00:59:09.174Z,15.25
2023-04-27T01:01:56.027Z,17.20
2023-04-27T01:04:42.274Z,19.45
2023-04-27T01:07:28.756Z,12.82
2023-04-27T01:10:16.393Z,13.63
2023-04-27T01:13:03.356Z,19.17
2023-04-27T01:15:50.903Z,17.75
2023-04-27T01:18:37.732Z,14.88
2023-04-27T01:21:23.889Z,14.73
2023-04-27T01:24:12.561Z,14.00
2023-04-27T01:26:58.721Z,15.75
2023-04-27T01:29:44.961Z,14.93
2023-04-27T01:32:31.291Z,12.80
2023-04-27T01:35:17.712Z,15.65
2023-04-27T01:38:04.030Z,11.43
2023-04-27T01:40:51.564Z,13.52
2023-04-27T01:43:40.245Z,14.32
2023-04-27T01:46:26.752Z,14.18
2023-04-27T01:49:13.332Z,16.17
2023-04-27T01:52:00.060Z,14.20
2023-04-27T01:54:46.341Z,13.02
2023-04-27T01:57:34.326Z,12.63
2023-04-27T02:00:21.330Z,12.55
2023-04-27T02:03:07.689Z,15.88
2023-04-27T02:05:54.016Z,15.45
2023-04-27T02:08:40.443Z,16.33
2023-04-27T02:11:28.322Z,16.52
2023-04-27T02:14:15.672Z,13.30
2023-04-27T02:17:02.340Z,13.65
2023-04-27T02:19:48.644Z,11.43
2023-04-27T02:22:34.744Z,11.15
2023-04-27T02:25:21.921Z,14.60
2023-04-27T02:28:07.856Z,15.07
2023-04-27T02:30:55.906Z,16.50
2023-04-27T02:33:42.609Z,16.10
2023-04-27T02:36:28.779Z,12.45
2023-04-27T02:39:15.052Z,20.10
2023-04-27T02:42:02.947Z,15.43
2023-04-27T02:44:49.587Z,13.18
2023-04-27T02:47:36.992Z,21.20
2023-04-27T02:50:23.571Z,13.32
2023-04-27T02:53:10.024Z,12.88
2023-04-27T02:55:56.569Z,13.10
2023-04-27T02:58:42.940Z,15.07
2023-04-27T03:01:30.046Z,12.60
2023-04-27T03:04:17.865Z,16.90
2023-04-27T03:07:04.362Z,12.15
2023-04-27T03:09:50.897Z,16.45
2023-04-27T03:12:37.335Z,17.80
2023-04-27T03:15:23.656Z,13.95
2023-04-27T03:18:10.076Z,14.45
2023-04-27T03:21:06.604Z,11.57
2023-04-27T03:23:52.947Z,22.88
2023-04-27T03:26:39.188Z,17.00
2023-04-27T03:29:25.724Z,13.65
2023-04-27T03:32:12.013Z,13.77
2023-04-27T03:34:58.496Z,11.13
2023-04-27T03:37:46.802Z,11.95
2023-04-27T03:40:32.939Z,15.23
2023-04-27T03:43:20.892Z,11.77
2023-04-27T03:46:07.121Z,13.00
2023-04-27T03:48:53.681Z,9.80
2023-04-27T03:51:42.276Z,12.43
2023-04-27T03:54:30.746Z,12.45
2023-04-27T03:57:17.811Z,16.63
2023-04-27T04:00:07.069Z,14.82
2023-04-27T04:02:59.295Z,17.60
2023-04-27T04:05:47.091Z,11.80
2023-04-27T04:08:34.294Z,12.38
2023-04-27T04:11:22.464Z,34.10
2023-04-27T04:14:11.165Z,19.45
2023-04-27T04:16:57.414Z,19.48
2023-04-27T04:19:43.688Z,11.10
2023-04-27T04:22:29.697Z,13.50
2023-04-27T04:25:16.115Z,14.35
2023-04-27T04:28:03.591Z,12.27
2023-04-27T04:30:49.675Z,13.10
2023-04-27T04:33:36.469Z,15.55
2023-04-27T04:36:23.770Z,20.60
2023-04-27T04:39:13.944Z,13.25
2023-04-27T04:42:00.507Z,15.80
2023-04-27T04:44:51.522Z,20.05
2023-04-27T04:47:39.674Z,20.63
2023-04-27T04:50:26.487Z,15.18
2023-04-27T04:53:12.734Z,13.93
2023-04-27T04:55:59.181Z,14.82
2023-04-27T04:58:45.724Z,16.95
2023-04-27T05:01:33.574Z,16.55
2023-04-27T05:04:19.999Z,15.95
2023-04-27T05:07:07.206Z,17.27
2023-04-27T05:09:53.853Z,21.40
2023-04-27T05:12:40.275Z,14.73
2023-04-27T05:15:28.653Z,15.40
2023-04-27T05:18:16.493Z,19.25
2023-04-27T05:21:02.886Z,13.88
2023-04-27T05:23:49.040Z,23.13
2023-04-27T05:26:35.326Z,16.58
2023-04-27T05:29:22.360Z,13.25
2023-04-27T05:32:08.944Z,11.85
2023-04-27T05:34:57.844Z,17.23
2023-04-27T05:37:46.196Z,14.43
2023-04-27T05:40:32.324Z,20.48
2023-04-27T05:43:18.718Z,19.13
2023-04-27T05:46:05.433Z,16.85
2023-04-27T05:48:51.742Z,15.43
2023-04-27T05:51:39.424Z,24.42
2023-04-27T05:54:25.677Z,13.70
2023-04-27T05:57:11.935Z,16.73
2023-04-27T05:59:58.380Z,15.30
2023-04-27T06:02:45.259Z,11.35
2023-04-27T06:05:32.035Z,15.73
2023-04-27T06:08:20.795Z,11.88
2023-04-27T06:11:07.504Z,12.57
2023-04-27T06:13:53.774Z,13.43
2023-04-27T06:16:40.530Z,14.35
2023-04-27T06:19:27.538Z,17.80
2023-04-27T06:22:13.529Z,13.93
2023-04-27T06:25:01.446Z,10.75
2023-04-27T06:27:47.615Z,17.67
2023-04-27T06:30:33.712Z,13.15
2023-04-27T06:33:19.714Z,12.48
2023-04-27T06:36:06.163Z,12.20
2023-04-27T06:38:55.638Z,9.77
2023-04-27T06:41:43.471Z,8.83
2023-04-27T06:44:37.907Z,9.30
2023-04-27T06:47:24.036Z,12.15
2023-04-27T06:50:11.039Z,9.75
2023-04-27T06:52:57.129Z,10.32
2023-04-27T06:55:45.595Z,12.32
2023-04-27T06:58:34.614Z,9.57
2023-04-27T07:01:21.110Z,7.10
2023-04-27T07:04:07.758Z,10.27
2023-04-27T07:06:54.393Z,8.55
2023-04-27T07:09:40.589Z,9.70
2023-04-27T07:12:26.961Z,14.43
2023-04-27T07:15:15.148Z,12.27
2023-04-27T07:18:01.696Z,10.18
2023-04-27T07:20:47.848Z,7.50
2023-04-27T07:23:34.323Z,10.70
2023-04-27T07:26:21.427Z,7.45
2023-04-27T07:29:18.852Z,10.75
2023-04-27T07:32:11.244Z,8.18
2023-04-27T07:34:57.984Z,13.32
2023-04-27T07:37:45.455Z,8.10
2023-04-27T07:40:32.795Z,7.18
2023-04-27T07:43:20.213Z,9.50
2023-04-27T07:46:07.442Z,6.03
2023-04-27T07:48:55.296Z,5.82
2023-04-27T07:51:42.940Z,4.40
2023-04-27T07:54:29.709Z,7.07
2023-04-27T07:57:16.272Z,4.35
2023-04-27T08:00:06.002Z,5.82
2023-04-27T08:02:59.078Z,5.55
2023-04-27T08:05:47.476Z,4.90
2023-04-27T08:08:34.164Z,7.18
2023-04-27T08:11:20.420Z,6.57
2023-04-27T08:14:08.941Z,10.70
2023-04-27T08:16:55.239Z,7.15
2023-04-27T08:19:42.168Z,4.40
2023-04-27T08:22:29.906Z,6.18
2023-04-27T08:25:16.287Z,6.45
2023-04-27T08:28:02.730Z,4.43
2023-04-27T08:30:49.213Z,5.63
2023-04-27T08:33:35.695Z,3.75
2023-04-27T08:36:24.339Z,5.43
2023-04-27T08:39:12.136Z,3.88
2023-04-27T08:41:58.965Z,6.47
2023-04-27T08:44:45.841Z,10.93
2023-04-27T08:47:41.973Z,7.07
2023-04-27T08:50:31.391Z,14.07
2023-04-27T08:53:19.069Z,6.00
2023-04-27T08:56:07.376Z,8.68
2023-04-27T08:58:53.791Z,5.65
2023-04-27T09:01:45.154Z,7.68
2023-04-27T09:04:38.144Z,5.93
2023-04-27T09:07:25.727Z,4.55
2023-04-27T09:10:15.425Z,4.30
2023-04-27T09:13:03.410Z,7.88
2023-04-27T09:15:51.762Z,5.25
2023-04-27T09:18:38.797Z,5.88
2023-04-27T09:21:25.956Z,4.82
2023-04-27T09:24:13.620Z,5.88
2023-04-27T09:27:00.951Z,5.38
2023-04-27T09:29:48.847Z,5.90
2023-04-27T09:32:35.083Z,5.05
2023-04-27T09:35:26.286Z,6.00
2023-04-27T09:38:13.727Z,4.40
2023-04-27T09:41:01.780Z,6.22
2023-04-27T09:43:48.264Z,5.22
2023-04-27T09:46:36.893Z,6.25
2023-04-27T09:49:25.354Z,3.70
2023-04-27T09:52:11.878Z,4.35
2023-04-27T09:55:00.629Z,3.55
2023-04-27T09:58:02.141Z,5.65
2023-04-27T10:00:58.290Z,5.22
2023-04-27T10:03:59.063Z,3.35
2023-04-27T10:07:01.141Z,8.70
2023-04-27T10:09:48.633Z,6.30
2023-04-27T10:12:36.740Z,7.53
2023-04-27T10:15:27.809Z,5.45
2023-04-27T10:18:13.916Z,6.15
2023-04-27T10:21:12.107Z,8.73
2023-04-27T10:24:08.492Z,4.97
2023-04-27T10:27:01.072Z,4.90
2023-04-27T10:29:50.495Z,5.13
2023-04-27T10:32:37.153Z,4.70
2023-04-27T10:35:33.603Z,4.25
2023-04-27T10:38:23.517Z,5.43
2023-04-27T10:41:15.583Z,4.10
2023-04-27T10:44:15.110Z,6.30
2023-04-27T10:47:02.634Z,5.75
2023-04-27T10:49:49.139Z,5.68
2023-04-27T10:52:35.887Z,5.22
2023-04-27T10:55:25.093Z,4.70
2023-04-27T10:58:12.187Z,5.07
2023-04-27T11:00:58.363Z,6.35
2023-04-27T11:03:48.900Z,6.43
2023-04-27T11:06:43.396Z,7.65
2023-04-27T11:09:29.589Z,10.30
2023-04-27T11:12:17.422Z,6.63
2023-04-27T11:15:05.047Z,5.82
2023-04-27T11:17:51.849Z,7.07
2023-04-27T11:20:38.455Z,6.55
2023-04-27T11:23:26.679Z,10.77
2023-04-27T11:26:16.067Z,6.88
2023-04-27T11:29:09.214Z,6.32
2023-04-27T11:31:55.676Z,6.75
2023-04-27T11:34:50.852Z,9.18
2023-04-27T11:37:37.296Z,4.95
2023-04-27T11:40:28.983Z,6.05
2023-04-27T11:43:17.849Z,4.35
2023-04-27T11:46:08.218Z,8.27
2023-04-27T11:49:02.470Z,5.40
2023-04-27T11:51:49.005Z,5.55
2023-04-27T11:54:40.296Z,7.05
2023-04-27T11:57:28.804Z,10.73
2023-04-27T12:00:16.489Z,8.10
2023-04-27T12:03:04.408Z,9.43
2023-04-27T12:05:52.196Z,9.77
2023-04-27T12:08:40.082Z,8.02
2023-04-27T12:11:28.531Z,5.57
2023-04-27T12:14:15.058Z,4.72
2023-04-27T12:17:02.026Z,6.22
2023-04-27T12:19:50.802Z,4.78
2023-04-27T12:22:39.072Z,7.50
2023-04-27T12:25:26.811Z,6.18
2023-04-27T12:28:18.866Z,7.72
2023-04-27T12:31:06.672Z,4.68
2023-04-27T12:33:54.159Z,5.80
2023-04-27T12:36:41.708Z,9.18
2023-04-27T12:39:27.713Z,5.45
2023-04-27T12:42:14.760Z,6.90
2023-04-27T12:45:01.725Z,6.43
2023-04-27T12:48:01.660Z,9.90
2023-04-27T12:50:50.485Z,5.30
2023-04-27T12:53:39.515Z,5.60
2023-04-27T12:56:26.762Z,5.15
2023-04-27T12:59:13.295Z,7.20
2023-04-27T13:02:01.274Z,5.22
2023-04-27T13:04:47.844Z,8.15
2023-04-27T13:07:40.403Z,7.05
2023-04-27T13:10:33.033Z,5.90
2023-04-27T13:13:21.735Z,11.68
2023-04-27T13:16:09.420Z,8.13
2023-04-27T13:18:56.450Z,7.95
2023-04-27T13:21:44.570Z,8.82
2023-04-27T13:24:31.406Z,9.15
2023-04-27T13:27:20.328Z,7.45
2023-04-27T13:30:08.322Z,8.30
2023-04-27T13:32:55.108Z,6.40
2023-04-27T13:35:41.871Z,9.68
2023-04-27T13:38:28.248Z,7.25
2023-04-27T13:41:16.549Z,8.73
2023-04-27T13:44:06.504Z,7.50
2023-04-27T13:46:52.711Z,7.80
2023-04-27T13:49:39.504Z,5.78
2023-04-27T13:52:26.142Z,6.45
2023-04-27T13:55:12.905Z,7.05
2023-04-27T13:58:11.631Z,5.13
2023-04-27T14:01:02.775Z,6.75
2023-04-27T14:03:49.343Z,7.90
2023-04-27T14:06:36.102Z,4.63
2023-04-27T14:09:26.530Z,6.82
2023-04-27T14:12:14.049Z,6.30
2023-04-27T14:15:05.323Z,7.45
2023-04-27T14:17:53.105Z,6.72
2023-04-27T14:20:40.369Z,6.85
2023-04-27T14:23:29.850Z,6.22
2023-04-27T14:26:16.295Z,6.00
2023-04-27T14:29:02.583Z,5.68
2023-04-27T14:31:50.186Z,9.23
2023-04-27T14:34:38.083Z,8.90
2023-04-27T14:37:24.788Z,7.50
2023-04-27T14:40:19.709Z,10.68
2023-04-27T14:43:06.732Z,5.47
2023-04-27T14:45:57.337Z,7.85
2023-04-27T14:48:49.759Z,8.30
2023-04-27T14:51:37.923Z,6.75
2023-04-27T14:54:24.382Z,7.45
2023-04-27T14:57:10.754Z,7.63
2023-04-27T14:59:57.455Z,8.35
2023-04-27T15:02:43.794Z,7.95
2023-04-27T15:05:30.155Z,7.03
2023-04-27T15:08:18.046Z,6.15
2023-04-27T15:11:05.448Z,8.60
2023-04-27T15:13:51.976Z,8.18
2023-04-27T15:16:38.406Z,8.25
2023-04-27T15:19:24.609Z,10.63
2023-04-27T15:22:11.431Z,8.02
2023-04-27T15:24:59.058Z,6.97
2023-04-27T15:28:11.148Z,7.93
2023-04-27T15:30:57.660Z,6.93
2023-04-27T15:33:44.152Z,6.53
2023-04-27T15:36:31.536Z,7.43
2023-04-27T15:39:17.634Z,8.20
2023-04-27T15:42:06.068Z,7.45
2023-04-27T15:44:52.218Z,5.28
2023-04-27T15:47:38.754Z,6.70
2023-04-27T15:50:25.635Z,5.15
2023-04-27T15:53:11.989Z,5.68
2023-04-27T15:55:58.731Z,5.50
2023-04-27T15:58:46.894Z,7.75
2023-04-27T16:01:33.240Z,5.53
2023-04-27T16:04:19.745Z,4.28
2023-04-27T16:07:07.088Z,5.53
2023-04-27T16:09:53.873Z,4.07
2023-04-27T16:12:40.782Z,5.85
2023-04-27T16:15:28.616Z,6.45
2023-04-27T16:18:15.006Z,5.38
2023-04-27T16:21:01.456Z,6.65
2023-04-27T16:23:47.833Z,5.75
2023-04-27T16:26:34.342Z,3.83
2023-04-27T16:29:20.958Z,10.70
2023-04-27T16:32:08.875Z,5.38
2023-04-27T16:34:58.236Z,7.82
2023-04-27T16:37:45.017Z,4.40
2023-04-27T16:40:33.462Z,4.82
2023-04-27T16:43:20.350Z,5.97
2023-04-27T16:46:08.718Z,7.15
2023-04-27T16:48:56.950Z,9.20
2023-04-27T16:51:43.463Z,5.25
2023-04-27T16:55:09.144Z,8.07
2023-04-27T16:57:55.852Z,7.10
2023-04-27T17:00:42.241Z,7.10
2023-04-27T17:03:28.885Z,6.78
2023-04-27T17:06:19.804Z,7.28
2023-04-27T17:09:06.180Z,6.97
2023-04-27T17:11:52.791Z,5.25
2023-04-27T17:14:39.337Z,7.05
2023-04-27T17:17:26.256Z,7.75
2023-04-27T17:20:13.576Z,6.13
2023-04-27T17:23:01.154Z,5.85
2023-04-27T17:25:47.722Z,6.80
2023-04-27T17:28:35.506Z,7.65
2023-04-27T17:31:22.073Z,5.82
2023-04-27T17:34:08.403Z,4.82
2023-04-27T17:36:54.507Z,5.72
2023-04-27T17:39:42.178Z,7.80
2023-04-27T17:42:28.568Z,6.35
2023-04-27T17:45:14.809Z,7.70
2023-04-27T17:48:01.444Z,6.43
2023-04-27T17:50:47.885Z,8.52
2023-04-27T17:53:34.162Z,7.85
2023-04-27T17:56:22.449Z,7.07
2023-04-27T17:59:09.006Z,8.43
2023-04-27T18:01:55.667Z,6.68
2023-04-27T18:04:44.656Z,6.38
2023-04-27T18:07:31.389Z,7.82
2023-04-27T18:10:17.991Z,5.43
2023-04-27T18:13:06.023Z,5.88
2023-04-27T18:15:54.884Z,6.88
2023-04-27T18:18:41.637Z,4.68
2023-04-27T18:21:28.411Z,5.40
2023-04-27T18:24:15.153Z,6.75
2023-04-27T18:27:02.870Z,6.10
2023-04-27T18:29:51.920Z,8.75
2023-04-27T18:32:38.711Z,5.70
2023-04-27T18:35:25.011Z,5.72
2023-04-27T18:38:11.408Z,5.10
2023-04-27T18:40:58.487Z,6.30
2023-04-27T18:43:44.965Z,8.30
2023-04-27T18:46:33.108Z,7.13
2023-04-27T18:49:19.430Z,8.05
2023-04-27T18:52:07.569Z,5.93
2023-04-27T18:54:54.091Z,7.78
2023-04-27T18:57:40.577Z,6.55
2023-04-27T19:00:28.615Z,5.50
2023-04-27T19:03:16.598Z,7.50
2023-04-27T19:06:03.526Z,6.47
2023-04-27T19:08:50.017Z,6.00
2023-04-27T19:11:36.383Z,4.28
2023-04-27T19:14:24.366Z,5.32
2023-04-27T19:17:11.653Z,9.43
2023-04-27T19:19:59.438Z,8.18
2023-04-27T19:22:45.598Z,9.27
2023-04-27T19:25:32.075Z,8.80
2023-04-27T19:28:19.607Z,7.63
2023-04-27T19:31:06.854Z,6.70
2023-04-27T19:33:55.345Z,5.40
2023-04-27T19:36:43.566Z,6.47
2023-04-27T19:39:29.768Z,8.80
2023-04-27T19:42:16.613Z,7.68
2023-04-27T19:45:03.880Z,7.28
2023-04-27T19:47:50.549Z,5.55
2023-04-27T19:50:38.435Z,5.88
2023-04-27T19:53:26.480Z,6.78
2023-04-27T19:56:12.719Z,7.65
2023-04-27T19:58:59.188Z,7.80
2023-04-27T20:01:46.520Z,8.73
2023-04-27T20:04:34.509Z,7.55
2023-04-27T20:07:20.908Z,5.60
2023-04-27T20:10:09.284Z,7.57
2023-04-27T20:12:57.179Z,7.28
2023-04-27T20:15:44.410Z,5.97
2023-04-27T20:18:31.761Z,6.97
2023-04-27T20:21:18.245Z,8.20
2023-04-27T20:24:04.588Z,8.02
2023-04-27T20:26:52.135Z,8.02
2023-04-27T20:29:38.446Z,7.47
2023-04-27T20:32:24.906Z,6.50
2023-04-27T20:35:11.280Z,9.23
2023-04-27T20:37:57.837Z,10.80
2023-04-27T20:40:43.865Z,7.88
2023-04-27T20:43:32.548Z,6.93
2023-04-27T20:46:18.945Z,6.15
2023-04-27T20:49:05.928Z,7.22
2023-04-27T20:51:52.027Z,5.93
2023-04-27T20:54:38.113Z,6.40
2023-04-27T20:57:24.224Z,9.25
2023-04-27T21:00:15.258Z,6.80
2023-04-27T21:03:01.881Z,9.15
2023-04-27T21:05:49.136Z,10.02
2023-04-27T21:08:35.758Z,8.88
2023-04-27T21:11:22.069Z,8.63
2023-04-27T21:14:08.428Z,8.48
2023-04-27T21:16:56.034Z,5.47
2023-04-27T21:19:42.538Z,6.32
2023-04-27T21:22:28.673Z,5.22
2023-04-27T21:25:14.862Z,7.88
2023-04-27T21:28:01.533Z,7.40
2023-04-27T21:30:47.738Z,7.57
2023-04-27T21:33:35.703Z,5.53
2023-04-27T21:36:22.466Z,8.55
2023-04-27T21:39:08.803Z,7.22
2023-04-27T21:41:55.078Z,8.50
2023-04-27T21:44:41.569Z,7.57
2023-04-27T21:47:28.050Z,5.40
2023-04-27T21:50:16.466Z,8.55
2023-04-27T21:53:02.784Z,7.65
2023-04-27T21:55:51.028Z,7.10
2023-04-27T21:58:37.240Z,6.80
2023-04-27T22:01:24.133Z,6.93
2023-04-27T22:04:10.943Z,6.00
2023-04-27T22:06:59.003Z,6.50
2023-04-27T22:09:45.803Z,7.38
2023-04-27T22:12:32.314Z,7.20
2023-04-27T22:15:19.715Z,6.03
2023-04-27T22:18:06.738Z,9.27
2023-04-27T22:20:54.328Z,6.05
2023-04-27T22:23:41.942Z,5.28
2023-04-27T22:26:28.371Z,10.25
2023-04-27T22:29:15.001Z,11.48
2023-04-27T22:32:01.959Z,5.20
2023-04-27T22:34:48.577Z,7.75
2023-04-27T22:37:35.036Z,7.07
2023-04-27T22:40:23.230Z,6.25
2023-04-27T22:43:09.764Z,7.43
2023-04-27T22:45:56.204Z,6.75
2023-04-27T22:48:43.603Z,7.28
2023-04-27T22:51:29.918Z,7.18
2023-04-27T22:54:16.442Z,6.18
2023-04-27T22:57:04.553Z,6.68
2023-04-27T22:59:51.473Z,9.20
2023-04-27T23:02:37.991Z,7.80
2023-04-27T23:05:25.400Z,8.07
2023-04-27T23:08:13.209Z,8.48
2023-04-27T23:10:59.646Z,5.47
2023-04-27T23:13:50.627Z,10.15
2023-04-27T23:16:37.241Z,7.20
2023-04-27T23:19:23.607Z,6.07
2023-04-27T23:22:09.723Z,7.60
2023-04-27T23:24:56.284Z,6.57
2023-04-27T23:27:42.542Z,9.77
2023-04-27T23:30:30.820Z,7.78
2023-04-27T23:33:16.952Z,5.88
2023-04-27T23:36:03.480Z,7.65
2023-04-27T23:38:49.507Z,9.00
2023-04-27T23:41:35.815Z,7.07
2023-04-27T23:44:22.475Z,5.32
2023-04-27T23:47:10.196Z,12.07
2023-04-27T23:49:57.755Z,8.60
2023-04-27T23:52:45.162Z,9.18
2023-04-27T23:55:31.391Z,5.88
2023-04-27T23:58:18.553Z,11.25
